sensor_id;sensor_type;location;lat;lon;timestamp;P1;durP1;ratioP1;P2;durP2;ratioP2
5135;SDS011;2586;48.710;9.202;2022-07-11T00:02:07;1.17;;;0.67;;
5135;SDS011;2586;48.710;9.202;2022-07-11T00:04:33;4.87;;;1.07;;
5135;SDS011;2586;48.710;9.202;2022-07-11T00:07:00;3.03;;;1.00;;
5135;SDS011;2586;48.710;9.202;2022-07-11T00:09:27;2.30;;;0.93;;
5135;SDS011;2586;48.710;9.202;2022-07-11T00:11:53;0.90;;;0.73;;
5135;SDS011;2586;48.710;9.202;2022-07-11T00:14:19;3.50;;;0.90;;
5135;SDS011;2586;48.710;9.202;2022-07-11T00:16:46;0.60;;;0.50;;
5135;SDS011;2586;48.710;9.202;2022-07-11T00:19:13;2.50;;;1.00;;
5135;SDS011;2586;48.710;9.202;2022-07-11T00:21:38;1.43;;;0.77;;
5135;SDS011;2586;48.710;9.202;2022-07-11T00:24:04;2.90;;;0.87;;
5135;SDS011;2586;48.710;9.202;2022-07-11T00:26:32;1.37;;;0.70;;
5135;SDS011;2586;48.710;9.202;2022-07-11T00:28:58;10.23;;;1.67;;
5135;SDS011;2586;48.710;9.202;2022-07-11T00:31:24;3.27;;;1.17;;
5135;SDS011;2586;48.710;9.202;2022-07-11T00:33:49;3.33;;;1.00;;
5135;SDS011;2586;48.710;9.202;2022-07-11T00:36:15;2.27;;;1.10;;
5135;SDS011;2586;48.710;9.202;2022-07-11T00:38:41;1.83;;;0.90;;
5135;SDS011;2586;48.710;9.202;2022-07-11T00:41:07;2.40;;;0.90;;
5135;SDS011;2586;48.710;9.202;2022-07-11T00:43:33;13.83;;;1.10;;
5135;SDS011;2586;48.710;9.202;2022-07-11T00:46:03;2.60;;;0.73;;
5135;SDS011;2586;48.710;9.202;2022-07-11T00:48:30;5.43;;;0.80;;
5135;SDS011;2586;48.710;9.202;2022-07-11T00:50:56;3.23;;;0.90;;
5135;SDS011;2586;48.710;9.202;2022-07-11T00:53:23;3.33;;;1.03;;
5135;SDS011;2586;48.710;9.202;2022-07-11T00:55:50;1.10;;;0.80;;
5135;SDS011;2586;48.710;9.202;2022-07-11T00:58:18;2.77;;;1.00;;
5135;SDS011;2586;48.710;9.202;2022-07-11T01:00:44;3.67;;;0.87;;
5135;SDS011;2586;48.710;9.202;2022-07-11T01:03:10;1.80;;;0.97;;
5135;SDS011;2586;48.710;9.202;2022-07-11T01:05:36;1.57;;;0.97;;
5135;SDS011;2586;48.710;9.202;2022-07-11T01:08:01;2.87;;;0.90;;
5135;SDS011;2586;48.710;9.202;2022-07-11T01:10:27;3.70;;;1.00;;
5135;SDS011;2586;48.710;9.202;2022-07-11T01:12:53;0.70;;;0.70;;
5135;SDS011;2586;48.710;9.202;2022-07-11T01:15:19;5.67;;;0.80;;
5135;SDS011;2586;48.710;9.202;2022-07-11T01:17:45;1.80;;;0.93;;
5135;SDS011;2586;48.710;9.202;2022-07-11T01:20:10;1.33;;;0.87;;
5135;SDS011;2586;48.710;9.202;2022-07-11T01:22:39;2.33;;;1.10;;
5135;SDS011;2586;48.710;9.202;2022-07-11T01:25:08;1.80;;;1.00;;
5135;SDS011;2586;48.710;9.202;2022-07-11T01:27:34;1.20;;;0.83;;
5135;SDS011;2586;48.710;9.202;2022-07-11T01:30:01;1.17;;;0.80;;
5135;SDS011;2586;48.710;9.202;2022-07-11T01:32:27;1.20;;;1.03;;
5135;SDS011;2586;48.710;9.202;2022-07-11T01:34:52;1.87;;;1.30;;
5135;SDS011;2586;48.710;9.202;2022-07-11T01:37:18;3.63;;;1.33;;
5135;SDS011;2586;48.710;9.202;2022-07-11T01:39:44;1.80;;;0.90;;
5135;SDS011;2586;48.710;9.202;2022-07-11T01:42:09;12.70;;;1.67;;
5135;SDS011;2586;48.710;9.202;2022-07-11T01:44:35;7.00;;;1.20;;
5135;SDS011;2586;48.710;9.202;2022-07-11T01:47:00;3.00;;;1.03;;
5135;SDS011;2586;48.710;9.202;2022-07-11T01:49:26;1.33;;;0.80;;
5135;SDS011;2586;48.710;9.202;2022-07-11T01:51:54;2.40;;;0.83;;
5135;SDS011;2586;48.710;9.202;2022-07-11T01:54:20;1.20;;;1.10;;
5135;SDS011;2586;48.710;9.202;2022-07-11T01:56:46;1.90;;;1.20;;
5135;SDS011;2586;48.710;9.202;2022-07-11T01:59:12;4.17;;;1.80;;
5135;SDS011;2586;48.710;9.202;2022-07-11T02:01:37;1.20;;;1.10;;
5135;SDS011;2586;48.710;9.202;2022-07-11T02:04:03;2.13;;;1.03;;
5135;SDS011;2586;48.710;9.202;2022-07-11T02:06:30;2.30;;;1.00;;
5135;SDS011;2586;48.710;9.202;2022-07-11T02:08:56;2.93;;;1.30;;
5135;SDS011;2586;48.710;9.202;2022-07-11T02:11:21;2.73;;;1.10;;
5135;SDS011;2586;48.710;9.202;2022-07-11T02:13:48;4.73;;;1.20;;
5135;SDS011;2586;48.710;9.202;2022-07-11T02:16:14;1.40;;;1.30;;
5135;SDS011;2586;48.710;9.202;2022-07-11T02:18:40;3.90;;;1.13;;
5135;SDS011;2586;48.710;9.202;2022-07-11T02:21:06;3.80;;;1.17;;
5135;SDS011;2586;48.710;9.202;2022-07-11T02:23:31;3.57;;;1.07;;
5135;SDS011;2586;48.710;9.202;2022-07-11T02:25:57;6.60;;;1.50;;
5135;SDS011;2586;48.710;9.202;2022-07-11T02:28:22;3.30;;;1.00;;
5135;SDS011;2586;48.710;9.202;2022-07-11T02:30:48;1.93;;;1.10;;
5135;SDS011;2586;48.710;9.202;2022-07-11T02:33:14;7.20;;;1.10;;
5135;SDS011;2586;48.710;9.202;2022-07-11T02:35:43;2.97;;;1.53;;
5135;SDS011;2586;48.710;9.202;2022-07-11T02:38:11;1.53;;;1.00;;
5135;SDS011;2586;48.710;9.202;2022-07-11T02:40:37;9.83;;;2.40;;
5135;SDS011;2586;48.710;9.202;2022-07-11T02:43:03;11.33;;;1.50;;
5135;SDS011;2586;48.710;9.202;2022-07-11T02:45:28;2.80;;;1.43;;
5135;SDS011;2586;48.710;9.202;2022-07-11T02:47:54;4.43;;;2.00;;
5135;SDS011;2586;48.710;9.202;2022-07-11T02:50:19;3.97;;;1.57;;
5135;SDS011;2586;48.710;9.202;2022-07-11T02:52:45;2.10;;;1.60;;
5135;SDS011;2586;48.710;9.202;2022-07-11T02:55:11;1.07;;;1.07;;
5135;SDS011;2586;48.710;9.202;2022-07-11T02:57:38;8.40;;;1.30;;
5135;SDS011;2586;48.710;9.202;2022-07-11T03:00:04;3.33;;;1.40;;
5135;SDS011;2586;48.710;9.202;2022-07-11T03:02:32;6.20;;;1.43;;
5135;SDS011;2586;48.710;9.202;2022-07-11T03:04:57;1.27;;;1.00;;
5135;SDS011;2586;48.710;9.202;2022-07-11T03:07:25;4.77;;;1.03;;
5135;SDS011;2586;48.710;9.202;2022-07-11T03:09:51;4.43;;;1.57;;
5135;SDS011;2586;48.710;9.202;2022-07-11T03:12:17;4.17;;;1.20;;
5135;SDS011;2586;48.710;9.202;2022-07-11T03:14:43;4.30;;;1.47;;
5135;SDS011;2586;48.710;9.202;2022-07-11T03:17:08;4.97;;;1.27;;
5135;SDS011;2586;48.710;9.202;2022-07-11T03:19:34;1.50;;;1.40;;
5135;SDS011;2586;48.710;9.202;2022-07-11T03:22:00;6.03;;;1.43;;
5135;SDS011;2586;48.710;9.202;2022-07-11T03:24:25;1.93;;;1.70;;
5135;SDS011;2586;48.710;9.202;2022-07-11T03:26:51;1.70;;;1.47;;
5135;SDS011;2586;48.710;9.202;2022-07-11T03:29:16;2.00;;;1.33;;
5135;SDS011;2586;48.710;9.202;2022-07-11T03:31:42;1.50;;;1.40;;
5135;SDS011;2586;48.710;9.202;2022-07-11T03:34:08;2.03;;;1.73;;
5135;SDS011;2586;48.710;9.202;2022-07-11T03:36:34;1.57;;;1.20;;
5135;SDS011;2586;48.710;9.202;2022-07-11T03:39:00;1.50;;;1.40;;
5135;SDS011;2586;48.710;9.202;2022-07-11T03:41:25;1.50;;;1.40;;
5135;SDS011;2586;48.710;9.202;2022-07-11T03:43:53;2.60;;;1.20;;
5135;SDS011;2586;48.710;9.202;2022-07-11T03:46:20;7.00;;;2.03;;
5135;SDS011;2586;48.710;9.202;2022-07-11T03:48:46;3.80;;;1.73;;
5135;SDS011;2586;48.710;9.202;2022-07-11T03:51:12;1.93;;;1.50;;
5135;SDS011;2586;48.710;9.202;2022-07-11T03:53:37;4.73;;;1.87;;
5135;SDS011;2586;48.710;9.202;2022-07-11T03:56:03;3.73;;;1.50;;
5135;SDS011;2586;48.710;9.202;2022-07-11T03:58:29;3.80;;;1.97;;
5135;SDS011;2586;48.710;9.202;2022-07-11T04:00:54;4.40;;;1.80;;
5135;SDS011;2586;48.710;9.202;2022-07-11T04:03:20;1.90;;;1.33;;
5135;SDS011;2586;48.710;9.202;2022-07-11T04:05:46;3.60;;;1.70;;
5135;SDS011;2586;48.710;9.202;2022-07-11T04:08:11;2.50;;;1.53;;
5135;SDS011;2586;48.710;9.202;2022-07-11T04:10:37;2.77;;;1.63;;
5135;SDS011;2586;48.710;9.202;2022-07-11T04:13:03;1.20;;;0.97;;
5135;SDS011;2586;48.710;9.202;2022-07-11T04:15:28;4.07;;;1.87;;
5135;SDS011;2586;48.710;9.202;2022-07-11T04:17:54;5.03;;;1.80;;
5135;SDS011;2586;48.710;9.202;2022-07-11T04:20:20;1.60;;;1.50;;
5135;SDS011;2586;48.710;9.202;2022-07-11T04:22:45;1.93;;;1.83;;
5135;SDS011;2586;48.710;9.202;2022-07-11T04:25:11;3.10;;;2.23;;
5135;SDS011;2586;48.710;9.202;2022-07-11T04:27:36;2.80;;;2.20;;
5135;SDS011;2586;48.710;9.202;2022-07-11T04:30:02;4.00;;;1.33;;
5135;SDS011;2586;48.710;9.202;2022-07-11T04:32:28;2.07;;;1.63;;
5135;SDS011;2586;48.710;9.202;2022-07-11T04:34:54;5.63;;;1.33;;
5135;SDS011;2586;48.710;9.202;2022-07-11T04:37:19;3.30;;;1.97;;
5135;SDS011;2586;48.710;9.202;2022-07-11T04:39:45;1.63;;;1.00;;
5135;SDS011;2586;48.710;9.202;2022-07-11T04:42:12;5.40;;;1.60;;
5135;SDS011;2586;48.710;9.202;2022-07-11T04:44:37;2.30;;;1.60;;
5135;SDS011;2586;48.710;9.202;2022-07-11T04:47:03;2.03;;;1.83;;
5135;SDS011;2586;48.710;9.202;2022-07-11T04:49:29;1.73;;;1.63;;
5135;SDS011;2586;48.710;9.202;2022-07-11T04:51:55;2.13;;;1.93;;
5135;SDS011;2586;48.710;9.202;2022-07-11T04:54:22;1.87;;;1.77;;
5135;SDS011;2586;48.710;9.202;2022-07-11T04:56:47;1.50;;;1.40;;
5135;SDS011;2586;48.710;9.202;2022-07-11T04:59:13;1.70;;;1.57;;
5135;SDS011;2586;48.710;9.202;2022-07-11T05:01:38;3.80;;;2.20;;
5135;SDS011;2586;48.710;9.202;2022-07-11T05:04:04;6.00;;;1.53;;
5135;SDS011;2586;48.710;9.202;2022-07-11T05:06:30;1.93;;;1.83;;
5135;SDS011;2586;48.710;9.202;2022-07-11T05:08:55;1.83;;;1.50;;
5135;SDS011;2586;48.710;9.202;2022-07-11T05:11:21;2.00;;;1.70;;
5135;SDS011;2586;48.710;9.202;2022-07-11T05:13:48;2.60;;;1.70;;
5135;SDS011;2586;48.710;9.202;2022-07-11T05:16:13;3.80;;;1.87;;
5135;SDS011;2586;48.710;9.202;2022-07-11T05:18:39;4.43;;;1.50;;
5135;SDS011;2586;48.710;9.202;2022-07-11T05:21:05;1.80;;;1.70;;
5135;SDS011;2586;48.710;9.202;2022-07-11T05:23:30;7.97;;;2.10;;
5135;SDS011;2586;48.710;9.202;2022-07-11T05:25:56;2.60;;;1.50;;
5135;SDS011;2586;48.710;9.202;2022-07-11T05:28:22;1.83;;;1.50;;
5135;SDS011;2586;48.710;9.202;2022-07-11T05:30:47;1.63;;;1.53;;
5135;SDS011;2586;48.710;9.202;2022-07-11T05:33:13;3.40;;;2.10;;
5135;SDS011;2586;48.710;9.202;2022-07-11T05:35:39;2.33;;;2.20;;
5135;SDS011;2586;48.710;9.202;2022-07-11T05:38:04;3.47;;;2.30;;
5135;SDS011;2586;48.710;9.202;2022-07-11T05:40:30;4.80;;;2.20;;
5135;SDS011;2586;48.710;9.202;2022-07-11T05:42:56;3.80;;;2.23;;
5135;SDS011;2586;48.710;9.202;2022-07-11T05:45:21;4.07;;;2.10;;
5135;SDS011;2586;48.710;9.202;2022-07-11T05:47:47;8.20;;;2.30;;
5135;SDS011;2586;48.710;9.202;2022-07-11T05:50:12;14.20;;;2.33;;
5135;SDS011;2586;48.710;9.202;2022-07-11T05:52:38;3.73;;;2.23;;
5135;SDS011;2586;48.710;9.202;2022-07-11T05:55:04;2.03;;;1.87;;
5135;SDS011;2586;48.710;9.202;2022-07-11T05:57:30;2.80;;;1.90;;
5135;SDS011;2586;48.710;9.202;2022-07-11T05:59:55;2.50;;;2.33;;
5135;SDS011;2586;48.710;9.202;2022-07-11T06:02:21;4.13;;;2.80;;
5135;SDS011;2586;48.710;9.202;2022-07-11T06:04:46;2.57;;;2.40;;
5135;SDS011;2586;48.710;9.202;2022-07-11T06:07:12;3.17;;;2.70;;
5135;SDS011;2586;48.710;9.202;2022-07-11T06:09:58;6.43;;;2.87;;
5135;SDS011;2586;48.710;9.202;2022-07-11T06:12:23;4.43;;;2.67;;
5135;SDS011;2586;48.710;9.202;2022-07-11T06:14:49;3.90;;;2.40;;
5135;SDS011;2586;48.710;9.202;2022-07-11T06:17:14;3.73;;;2.90;;
5135;SDS011;2586;48.710;9.202;2022-07-11T06:19:40;3.30;;;3.00;;
5135;SDS011;2586;48.710;9.202;2022-07-11T06:22:05;4.10;;;2.10;;
5135;SDS011;2586;48.710;9.202;2022-07-11T06:24:31;3.37;;;2.40;;
5135;SDS011;2586;48.710;9.202;2022-07-11T06:26:56;6.00;;;2.43;;
5135;SDS011;2586;48.710;9.202;2022-07-11T06:29:25;2.73;;;2.53;;
5135;SDS011;2586;48.710;9.202;2022-07-11T06:31:51;9.00;;;2.83;;
5135;SDS011;2586;48.710;9.202;2022-07-11T06:34:17;7.60;;;2.70;;
5135;SDS011;2586;48.710;9.202;2022-07-11T06:36:43;13.60;;;3.10;;
5135;SDS011;2586;48.710;9.202;2022-07-11T06:39:09;5.23;;;2.63;;
5135;SDS011;2586;48.710;9.202;2022-07-11T06:41:34;2.90;;;2.10;;
5135;SDS011;2586;48.710;9.202;2022-07-11T06:44:00;2.53;;;2.33;;
5135;SDS011;2586;48.710;9.202;2022-07-11T06:46:26;3.13;;;2.33;;
5135;SDS011;2586;48.710;9.202;2022-07-11T06:48:52;3.43;;;2.30;;
5135;SDS011;2586;48.710;9.202;2022-07-11T06:51:17;4.20;;;3.00;;
5135;SDS011;2586;48.710;9.202;2022-07-11T06:53:43;8.50;;;3.30;;
5135;SDS011;2586;48.710;9.202;2022-07-11T06:56:09;5.43;;;3.30;;
5135;SDS011;2586;48.710;9.202;2022-07-11T06:58:35;5.80;;;2.70;;
5135;SDS011;2586;48.710;9.202;2022-07-11T07:01:01;11.10;;;2.70;;
5135;SDS011;2586;48.710;9.202;2022-07-11T07:03:28;5.30;;;3.07;;
5135;SDS011;2586;48.710;9.202;2022-07-11T07:05:55;2.80;;;2.63;;
5135;SDS011;2586;48.710;9.202;2022-07-11T07:08:26;5.70;;;2.57;;
5135;SDS011;2586;48.710;9.202;2022-07-11T07:10:53;5.20;;;3.37;;
5135;SDS011;2586;48.710;9.202;2022-07-11T07:13:19;2.17;;;1.90;;
5135;SDS011;2586;48.710;9.202;2022-07-11T07:15:48;7.50;;;2.80;;
5135;SDS011;2586;48.710;9.202;2022-07-11T07:18:15;4.50;;;2.03;;
5135;SDS011;2586;48.710;9.202;2022-07-11T07:20:40;2.77;;;2.30;;
5135;SDS011;2586;48.710;9.202;2022-07-11T07:23:06;6.00;;;2.17;;
5135;SDS011;2586;48.710;9.202;2022-07-11T07:25:33;4.00;;;1.77;;
5135;SDS011;2586;48.710;9.202;2022-07-11T07:27:59;2.97;;;1.87;;
5135;SDS011;2586;48.710;9.202;2022-07-11T07:30:24;5.80;;;2.73;;
5135;SDS011;2586;48.710;9.202;2022-07-11T07:32:50;2.43;;;2.23;;
5135;SDS011;2586;48.710;9.202;2022-07-11T07:35:16;3.23;;;2.33;;
5135;SDS011;2586;48.710;9.202;2022-07-11T07:37:41;2.47;;;2.27;;
5135;SDS011;2586;48.710;9.202;2022-07-11T07:40:07;2.43;;;2.20;;
5135;SDS011;2586;48.710;9.202;2022-07-11T07:42:33;7.03;;;1.90;;
5135;SDS011;2586;48.710;9.202;2022-07-11T07:44:59;3.03;;;2.20;;
5135;SDS011;2586;48.710;9.202;2022-07-11T07:47:25;2.20;;;1.97;;
5135;SDS011;2586;48.710;9.202;2022-07-11T07:49:50;6.67;;;2.20;;
5135;SDS011;2586;48.710;9.202;2022-07-11T07:52:16;3.67;;;2.10;;
5135;SDS011;2586;48.710;9.202;2022-07-11T07:54:42;7.83;;;2.43;;
5135;SDS011;2586;48.710;9.202;2022-07-11T07:57:07;9.77;;;1.97;;
5135;SDS011;2586;48.710;9.202;2022-07-11T07:59:33;4.93;;;1.53;;
5135;SDS011;2586;48.710;9.202;2022-07-11T08:01:59;2.10;;;1.40;;
5135;SDS011;2586;48.710;9.202;2022-07-11T08:04:24;3.13;;;1.93;;
5135;SDS011;2586;48.710;9.202;2022-07-11T08:06:50;3.57;;;1.93;;
5135;SDS011;2586;48.710;9.202;2022-07-11T08:09:16;6.50;;;2.07;;
5135;SDS011;2586;48.710;9.202;2022-07-11T08:11:42;6.60;;;1.47;;
5135;SDS011;2586;48.710;9.202;2022-07-11T08:14:08;10.07;;;2.00;;
5135;SDS011;2586;48.710;9.202;2022-07-11T08:16:34;4.97;;;1.80;;
5135;SDS011;2586;48.710;9.202;2022-07-11T08:19:00;4.10;;;1.50;;
5135;SDS011;2586;48.710;9.202;2022-07-11T08:21:29;16.40;;;1.67;;
5135;SDS011;2586;48.710;9.202;2022-07-11T08:23:56;2.50;;;1.40;;
5135;SDS011;2586;48.710;9.202;2022-07-11T08:26:23;5.73;;;1.20;;
5135;SDS011;2586;48.710;9.202;2022-07-11T08:28:49;1.33;;;0.87;;
5135;SDS011;2586;48.710;9.202;2022-07-11T08:31:17;4.40;;;0.90;;
5135;SDS011;2586;48.710;9.202;2022-07-11T08:33:42;3.90;;;0.90;;
5135;SDS011;2586;48.710;9.202;2022-07-11T08:36:08;1.10;;;0.73;;
5135;SDS011;2586;48.710;9.202;2022-07-11T08:38:34;1.20;;;0.70;;
5135;SDS011;2586;48.710;9.202;2022-07-11T08:40:59;6.33;;;0.83;;
5135;SDS011;2586;48.710;9.202;2022-07-11T08:43:26;1.10;;;0.70;;
5135;SDS011;2586;48.710;9.202;2022-07-11T08:45:57;1.30;;;1.20;;
5135;SDS011;2586;48.710;9.202;2022-07-11T08:48:23;9.23;;;1.00;;
5135;SDS011;2586;48.710;9.202;2022-07-11T08:50:50;4.73;;;1.10;;
5135;SDS011;2586;48.710;9.202;2022-07-11T08:53:16;0.93;;;0.93;;
5135;SDS011;2586;48.710;9.202;2022-07-11T08:55:42;2.20;;;1.07;;
5135;SDS011;2586;48.710;9.202;2022-07-11T08:58:08;1.37;;;0.80;;
5135;SDS011;2586;48.710;9.202;2022-07-11T09:00:35;0.80;;;0.80;;
5135;SDS011;2586;48.710;9.202;2022-07-11T09:03:01;2.00;;;0.70;;
5135;SDS011;2586;48.710;9.202;2022-07-11T09:05:28;1.73;;;1.13;;
5135;SDS011;2586;48.710;9.202;2022-07-11T09:07:56;0.73;;;0.70;;
5135;SDS011;2586;48.710;9.202;2022-07-11T09:10:21;4.47;;;0.97;;
5135;SDS011;2586;48.710;9.202;2022-07-11T09:13:04;0.80;;;0.80;;
5135;SDS011;2586;48.710;9.202;2022-07-11T09:15:32;1.20;;;0.60;;
5135;SDS011;2586;48.710;9.202;2022-07-11T09:18:03;0.53;;;0.53;;
5135;SDS011;2586;48.710;9.202;2022-07-11T09:20:51;0.80;;;0.80;;
5135;SDS011;2586;48.710;9.202;2022-07-11T09:23:41;5.70;;;1.37;;
5135;SDS011;2586;48.710;9.202;2022-07-11T09:26:32;4.30;;;0.70;;
5135;SDS011;2586;48.710;9.202;2022-07-11T09:29:04;2.30;;;0.60;;
5135;SDS011;2586;48.710;9.202;2022-07-11T09:31:34;2.00;;;0.70;;
5135;SDS011;2586;48.710;9.202;2022-07-11T09:34:08;1.10;;;0.80;;
5135;SDS011;2586;48.710;9.202;2022-07-11T09:36:35;0.60;;;0.60;;
5135;SDS011;2586;48.710;9.202;2022-07-11T09:39:03;0.90;;;0.70;;
5135;SDS011;2586;48.710;9.202;2022-07-11T09:41:31;4.53;;;1.00;;
5135;SDS011;2586;48.710;9.202;2022-07-11T09:44:08;0.70;;;0.60;;
5135;SDS011;2586;48.710;9.202;2022-07-11T09:46:34;1.10;;;0.50;;
5135;SDS011;2586;48.710;9.202;2022-07-11T09:49:00;1.20;;;1.00;;
5135;SDS011;2586;48.710;9.202;2022-07-11T09:51:26;1.70;;;0.70;;
5135;SDS011;2586;48.710;9.202;2022-07-11T09:53:55;1.30;;;0.57;;
5135;SDS011;2586;48.710;9.202;2022-07-11T09:56:25;0.83;;;0.73;;
5135;SDS011;2586;48.710;9.202;2022-07-11T09:59:00;0.80;;;0.70;;
5135;SDS011;2586;48.710;9.202;2022-07-11T10:01:26;3.83;;;1.40;;
5135;SDS011;2586;48.710;9.202;2022-07-11T10:03:53;2.50;;;0.70;;
5135;SDS011;2586;48.710;9.202;2022-07-11T10:06:19;0.90;;;0.70;;
5135;SDS011;2586;48.710;9.202;2022-07-11T10:08:47;4.93;;;0.90;;
5135;SDS011;2586;48.710;9.202;2022-07-11T10:11:13;5.43;;;0.97;;
5135;SDS011;2586;48.710;9.202;2022-07-11T10:13:39;1.43;;;1.00;;
5135;SDS011;2586;48.710;9.202;2022-07-11T10:19:02;1.63;;;1.13;;
5135;SDS011;2586;48.710;9.202;2022-07-11T10:21:52;1.43;;;0.60;;
5135;SDS011;2586;48.710;9.202;2022-07-11T10:24:28;6.33;;;0.80;;
5135;SDS011;2586;48.710;9.202;2022-07-11T10:29:54;1.83;;;1.40;;
5135;SDS011;2586;48.710;9.202;2022-07-11T10:32:20;1.83;;;1.17;;
5135;SDS011;2586;48.710;9.202;2022-07-11T10:34:46;3.03;;;1.40;;
5135;SDS011;2586;48.710;9.202;2022-07-11T10:37:50;1.77;;;1.10;;
5135;SDS011;2586;48.710;9.202;2022-07-11T10:46:08;5.80;;;2.07;;
5135;SDS011;2586;48.710;9.202;2022-07-11T10:49:22;4.47;;;1.20;;
5135;SDS011;2586;48.710;9.202;2022-07-11T10:53:49;1.23;;;0.90;;
5135;SDS011;2586;48.710;9.202;2022-07-11T10:58:58;0.60;;;0.60;;
5135;SDS011;2586;48.710;9.202;2022-07-11T11:04:44;0.80;;;0.70;;
5135;SDS011;2586;48.710;9.202;2022-07-11T11:07:27;1.00;;;0.87;;
5135;SDS011;2586;48.710;9.202;2022-07-11T11:10:00;0.97;;;0.57;;
5135;SDS011;2586;48.710;9.202;2022-07-11T11:13:16;1.07;;;0.50;;
5135;SDS011;2586;48.710;9.202;2022-07-11T11:23:26;2.60;;;0.93;;
5135;SDS011;2586;48.710;9.202;2022-07-11T11:31:30;1.00;;;0.87;;
5135;SDS011;2586;48.710;9.202;2022-07-11T11:33:57;1.07;;;0.83;;
5135;SDS011;2586;48.710;9.202;2022-07-11T11:36:24;0.93;;;0.83;;
5135;SDS011;2586;48.710;9.202;2022-07-11T11:38:52;4.93;;;1.10;;
5135;SDS011;2586;48.710;9.202;2022-07-11T11:41:22;2.30;;;1.20;;
5135;SDS011;2586;48.710;9.202;2022-07-11T11:43:49;1.47;;;0.90;;
5135;SDS011;2586;48.710;9.202;2022-07-11T11:46:15;0.83;;;0.83;;
5135;SDS011;2586;48.710;9.202;2022-07-11T11:48:41;0.67;;;0.67;;
5135;SDS011;2586;48.710;9.202;2022-07-11T11:51:12;0.90;;;0.80;;
5135;SDS011;2586;48.710;9.202;2022-07-11T11:58:39;5.80;;;1.10;;
5135;SDS011;2586;48.710;9.202;2022-07-11T12:01:12;1.57;;;1.00;;
5135;SDS011;2586;48.710;9.202;2022-07-11T12:03:51;0.97;;;0.97;;
5135;SDS011;2586;48.710;9.202;2022-07-11T12:06:23;2.70;;;1.13;;
5135;SDS011;2586;48.710;9.202;2022-07-11T12:08:51;1.60;;;1.10;;
5135;SDS011;2586;48.710;9.202;2022-07-11T12:11:27;1.63;;;0.83;;
5135;SDS011;2586;48.710;9.202;2022-07-11T12:14:00;2.00;;;1.43;;
5135;SDS011;2586;48.710;9.202;2022-07-11T12:16:28;1.00;;;1.00;;
5135;SDS011;2586;48.710;9.202;2022-07-11T12:21:51;1.80;;;1.10;;
5135;SDS011;2586;48.710;9.202;2022-07-11T12:24:22;1.00;;;0.93;;
5135;SDS011;2586;48.710;9.202;2022-07-11T12:26:53;0.80;;;0.70;;
5135;SDS011;2586;48.710;9.202;2022-07-11T12:29:25;1.00;;;1.00;;
5135;SDS011;2586;48.710;9.202;2022-07-11T12:34:25;1.10;;;1.00;;
5135;SDS011;2586;48.710;9.202;2022-07-11T12:37:03;2.80;;;1.20;;
5135;SDS011;2586;48.710;9.202;2022-07-11T12:39:31;1.17;;;0.83;;
5135;SDS011;2586;48.710;9.202;2022-07-11T12:41:59;1.57;;;0.90;;
5135;SDS011;2586;48.710;9.202;2022-07-11T12:44:30;3.17;;;1.10;;
5135;SDS011;2586;48.710;9.202;2022-07-11T12:47:15;1.90;;;1.13;;
5135;SDS011;2586;48.710;9.202;2022-07-11T12:49:49;3.90;;;0.80;;
5135;SDS011;2586;48.710;9.202;2022-07-11T12:52:15;1.67;;;0.83;;
5135;SDS011;2586;48.710;9.202;2022-07-11T12:54:42;1.10;;;1.00;;
5135;SDS011;2586;48.710;9.202;2022-07-11T12:57:09;1.63;;;1.00;;
5135;SDS011;2586;48.710;9.202;2022-07-11T12:59:36;1.10;;;1.00;;
5135;SDS011;2586;48.710;9.202;2022-07-11T13:02:05;3.47;;;1.00;;
5135;SDS011;2586;48.710;9.202;2022-07-11T13:07:18;1.17;;;0.80;;
5135;SDS011;2586;48.710;9.202;2022-07-11T13:10:14;3.33;;;1.20;;
5135;SDS011;2586;48.710;9.202;2022-07-11T13:12:40;3.23;;;1.00;;
5135;SDS011;2586;48.710;9.202;2022-07-11T13:15:07;1.67;;;1.40;;
5135;SDS011;2586;48.710;9.202;2022-07-11T13:17:33;2.10;;;1.13;;
5135;SDS011;2586;48.710;9.202;2022-07-11T13:20:00;1.00;;;1.00;;
5135;SDS011;2586;48.710;9.202;2022-07-11T13:22:25;1.10;;;1.00;;
5135;SDS011;2586;48.710;9.202;2022-07-11T13:24:52;4.93;;;1.20;;
5135;SDS011;2586;48.710;9.202;2022-07-11T13:27:17;7.50;;;1.60;;
5135;SDS011;2586;48.710;9.202;2022-07-11T13:29:43;1.47;;;1.07;;
5135;SDS011;2586;48.710;9.202;2022-07-11T13:32:10;1.40;;;1.30;;
5135;SDS011;2586;48.710;9.202;2022-07-11T13:34:35;1.00;;;0.90;;
5135;SDS011;2586;48.710;9.202;2022-07-11T13:37:01;8.87;;;1.23;;
5135;SDS011;2586;48.710;9.202;2022-07-11T13:39:27;3.50;;;1.30;;
5135;SDS011;2586;48.710;9.202;2022-07-11T13:41:52;1.10;;;0.97;;
5135;SDS011;2586;48.710;9.202;2022-07-11T13:44:18;1.10;;;1.00;;
5135;SDS011;2586;48.710;9.202;2022-07-11T13:46:44;1.30;;;1.20;;
5135;SDS011;2586;48.710;9.202;2022-07-11T13:49:09;3.50;;;1.13;;
5135;SDS011;2586;48.710;9.202;2022-07-11T13:51:37;5.10;;;1.13;;
5135;SDS011;2586;48.710;9.202;2022-07-11T13:54:03;2.50;;;1.17;;
5135;SDS011;2586;48.710;9.202;2022-07-11T13:56:29;1.90;;;1.00;;
5135;SDS011;2586;48.710;9.202;2022-07-11T13:58:54;2.20;;;2.10;;
5135;SDS011;2586;48.710;9.202;2022-07-11T14:01:20;2.23;;;1.20;;
5135;SDS011;2586;48.710;9.202;2022-07-11T14:03:45;1.43;;;1.33;;
5135;SDS011;2586;48.710;9.202;2022-07-11T14:06:11;6.70;;;1.17;;
5135;SDS011;2586;48.710;9.202;2022-07-11T14:08:37;4.93;;;1.40;;
5135;SDS011;2586;48.710;9.202;2022-07-11T14:11:02;3.70;;;1.40;;
5135;SDS011;2586;48.710;9.202;2022-07-11T14:13:28;4.63;;;1.40;;
5135;SDS011;2586;48.710;9.202;2022-07-11T14:15:54;2.33;;;1.33;;
5135;SDS011;2586;48.710;9.202;2022-07-11T14:18:20;1.43;;;1.30;;
5135;SDS011;2586;48.710;9.202;2022-07-11T14:20:46;3.67;;;1.60;;
5135;SDS011;2586;48.710;9.202;2022-07-11T14:23:11;1.83;;;1.50;;
5135;SDS011;2586;48.710;9.202;2022-07-11T14:25:37;3.03;;;1.50;;
5135;SDS011;2586;48.710;9.202;2022-07-11T14:28:03;1.37;;;1.27;;
5135;SDS011;2586;48.710;9.202;2022-07-11T14:30:30;1.63;;;1.33;;
5135;SDS011;2586;48.710;9.202;2022-07-11T14:32:56;1.67;;;1.53;;
5135;SDS011;2586;48.710;9.202;2022-07-11T14:35:22;2.10;;;1.60;;
5135;SDS011;2586;48.710;9.202;2022-07-11T14:37:48;6.47;;;1.70;;
5135;SDS011;2586;48.710;9.202;2022-07-11T14:40:13;3.70;;;1.37;;
5135;SDS011;2586;48.710;9.202;2022-07-11T14:42:39;1.30;;;1.20;;
5135;SDS011;2586;48.710;9.202;2022-07-11T14:45:05;1.73;;;1.63;;
5135;SDS011;2586;48.710;9.202;2022-07-11T14:47:31;1.93;;;1.73;;
5135;SDS011;2586;48.710;9.202;2022-07-11T14:49:57;2.90;;;1.63;;
5135;SDS011;2586;48.710;9.202;2022-07-11T14:52:23;3.63;;;1.57;;
5135;SDS011;2586;48.710;9.202;2022-07-11T14:54:48;2.00;;;1.37;;
5135;SDS011;2586;48.710;9.202;2022-07-11T14:57:14;4.27;;;1.57;;
5135;SDS011;2586;48.710;9.202;2022-07-11T14:59:39;1.53;;;1.40;;
5135;SDS011;2586;48.710;9.202;2022-07-11T15:02:05;2.00;;;1.27;;
5135;SDS011;2586;48.710;9.202;2022-07-11T15:04:31;5.13;;;1.63;;
5135;SDS011;2586;48.710;9.202;2022-07-11T15:06:56;2.87;;;1.30;;
5135;SDS011;2586;48.710;9.202;2022-07-11T15:09:40;5.53;;;1.67;;
5135;SDS011;2586;48.710;9.202;2022-07-11T15:12:25;2.30;;;1.57;;
5135;SDS011;2586;48.710;9.202;2022-07-11T15:14:51;6.07;;;1.60;;
5135;SDS011;2586;48.710;9.202;2022-07-11T15:17:17;2.43;;;1.63;;
5135;SDS011;2586;48.710;9.202;2022-07-11T15:19:43;1.70;;;1.60;;
5135;SDS011;2586;48.710;9.202;2022-07-11T15:22:09;5.70;;;1.47;;
5135;SDS011;2586;48.710;9.202;2022-07-11T15:24:34;1.60;;;1.50;;
5135;SDS011;2586;48.710;9.202;2022-07-11T15:27:00;5.20;;;1.63;;
5135;SDS011;2586;48.710;9.202;2022-07-11T15:29:26;5.53;;;1.13;;
5135;SDS011;2586;48.710;9.202;2022-07-11T15:31:51;1.40;;;1.30;;
5135;SDS011;2586;48.710;9.202;2022-07-11T15:34:17;2.00;;;1.40;;
5135;SDS011;2586;48.710;9.202;2022-07-11T15:36:46;2.07;;;1.43;;
5135;SDS011;2586;48.710;9.202;2022-07-11T15:39:12;5.90;;;2.10;;
5135;SDS011;2586;48.710;9.202;2022-07-11T15:41:37;1.50;;;1.37;;
5135;SDS011;2586;48.710;9.202;2022-07-11T15:44:03;3.30;;;1.67;;
5135;SDS011;2586;48.710;9.202;2022-07-11T15:46:29;1.80;;;1.70;;
5135;SDS011;2586;48.710;9.202;2022-07-11T15:48:55;4.20;;;1.40;;
5135;SDS011;2586;48.710;9.202;2022-07-11T15:51:21;4.10;;;1.67;;
5135;SDS011;2586;48.710;9.202;2022-07-11T15:53:47;2.67;;;1.47;;
5135;SDS011;2586;48.710;9.202;2022-07-11T15:56:12;7.73;;;1.60;;
5135;SDS011;2586;48.710;9.202;2022-07-11T15:58:38;4.37;;;1.50;;
5135;SDS011;2586;48.710;9.202;2022-07-11T16:01:03;2.47;;;1.57;;
5135;SDS011;2586;48.710;9.202;2022-07-11T16:03:29;4.93;;;1.40;;